Time;durP1;ratioP1;P1;durP2;ratioP2;P2;SDS_P1;SDS_P2;PMS_P1;PMS_P2;Temp;Humidity;BMP_temperature;BMP_pressure;BME280_temperature;BME280_humidity;BME280_pressure;Samples;Min_cycle;Max_cycle;Signal;HPM_P1;HPM_P2
2023/05/21 00:02:03;;;;;;;5.78;3.20;;;15.90;90.50;;;;;;6241791;23;20031;-70
2023/05/21 00:04:30;;;;;;;3.47;3.10;;;16.00;90.60;;;;;;6241371;23;20426;-70
2023/05/21 00:06:57;;;;;;;2.60;2.40;;;16.00;90.70;;;;;;6241515;23;19996;-70
2023/05/21 00:09:23;;;;;;;4.28;2.90;;;16.00;90.60;;;;;;6213718;23;20299;-71
2023/05/21 00:11:48;;;;;;;3.30;2.80;;;16.00;90.70;;;;;;6241462;23;20000;-69
2023/05/21 00:14:14;;;;;;;3.70;3.40;;;16.10;90.70;;;;;;6241081;23;20003;-70
2023/05/21 00:16:40;;;;;;;5.43;3.00;;;16.10;90.70;;;;;;6241577;23;20110;-70
2023/05/21 00:19:05;;;;;;;3.92;3.05;;;16.10;91.00;;;;;;6241536;23;20007;-70
2023/05/21 00:21:31;;;;;;;3.85;3.08;;;16.20;90.80;;;;;;6241352;23;20043;-70
2023/05/21 00:23:57;;;;;;;3.45;2.72;;;16.20;90.80;;;;;;6241201;23;20000;-70
2023/05/21 00:26:23;;;;;;;4.85;2.85;;;16.20;90.80;;;;;;6241040;23;20012;-69
2023/05/21 00:28:49;;;;;;;4.22;3.78;;;16.20;90.70;;;;;;6240879;23;20004;-70
2023/05/21 00:31:16;;;;;;;3.83;3.40;;;16.20;90.90;;;;;;6241388;23;20011;-70
2023/05/21 00:33:42;;;;;;;3.72;2.58;;;16.20;91.00;;;;;;6241410;23;20003;-70
2023/05/21 00:36:07;;;;;;;6.18;4.10;;;16.20;91.00;;;;;;6241309;23;20000;-70
2023/05/21 00:38:33;;;;;;;4.90;3.50;;;16.20;91.00;;;;;;6240857;23;20011;-71
2023/05/21 00:41:01;;;;;;;3.47;3.17;;;16.20;91.10;;;;;;6241112;23;20000;-70
2023/05/21 00:43:26;;;;;;;5.45;3.80;;;16.20;91.20;;;;;;6240502;23;20087;-70
2023/05/21 00:45:52;;;;;;;5.93;3.38;;;16.20;91.30;;;;;;6241391;23;20028;-70
2023/05/21 00:48:19;;;;;;;3.47;3.15;;;16.20;91.40;;;;;;6240526;23;20035;-70
2023/05/21 00:50:45;;;;;;;4.65;3.10;;;16.20;91.40;;;;;;6241483;23;20000;-69
2023/05/21 00:53:14;;;;;;;4.20;3.50;;;16.20;91.50;;;;;;6240190;23;19996;-70
2023/05/21 00:55:40;;;;;;;5.90;3.45;;;16.20;91.50;;;;;;6214237;23;20004;-70
2023/05/21 00:58:06;;;;;;;4.90;3.85;;;16.20;91.60;;;;;;6241248;23;20086;-70
2023/05/21 01:00:33;;;;;;;5.35;3.45;;;16.20;91.70;;;;;;6240958;23;20000;-70
2023/05/21 01:03:00;;;;;;;4.63;3.67;;;16.20;91.80;;;;;;6241143;23;20004;-70
2023/05/21 01:05:27;;;;;;;3.72;3.17;;;16.20;91.90;;;;;;6240976;23;20028;-70
2023/05/21 01:07:54;;;;;;;4.18;2.88;;;16.20;91.90;;;;;;6241213;23;20072;-70
2023/05/21 01:10:20;;;;;;;3.60;3.30;;;16.10;92.00;;;;;;6242295;23;20062;-70
2023/05/21 01:12:46;;;;;;;4.45;3.78;;;16.10;92.00;;;;;;6243015;23;20410;-70
2023/05/21 01:15:13;;;;;;;3.97;3.58;;;16.10;92.10;;;;;;6242415;23;20342;-70
2023/05/21 01:17:40;;;;;;;6.72;3.33;;;16.10;92.20;;;;;;6243354;23;19996;-70
2023/05/21 01:20:09;;;;;;;5.22;3.58;;;16.10;92.30;;;;;;6241783;23;20001;-70
2023/05/21 01:22:35;;;;;;;5.22;3.88;;;16.10;92.40;;;;;;6242951;23;20000;-70
2023/05/21 01:25:02;;;;;;;4.13;3.72;;;16.10;92.50;;;;;;6242234;23;20438;-70
2023/05/21 01:27:28;;;;;;;4.38;3.97;;;16.10;92.50;;;;;;6242906;23;20393;-70
2023/05/21 01:29:54;;;;;;;5.22;3.63;;;16.10;92.60;;;;;;6242849;23;20015;-71
2023/05/21 01:32:31;;;;;;;4.88;4.05;;;16.10;92.70;;;;;;6242436;23;20310;-69
2023/05/21 01:35:15;;;;;;;4.85;4.45;;;16.10;92.70;;;;;;6242677;23;20007;-70
2023/05/21 01:37:48;;;;;;;4.40;4.00;;;16.10;92.90;;;;;;6242969;23;20004;-70
2023/05/21 01:40:52;;;;;;;6.38;3.90;;;16.10;92.90;;;;;;6242366;23;20310;-70
2023/05/21 01:43:19;;;;;;;4.90;3.70;;;16.00;92.90;;;;;;6220101;23;20434;-70
2023/05/21 01:45:46;;;;;;;4.35;3.95;;;16.00;93.00;;;;;;6242798;23;20035;-70
2023/05/21 01:48:12;;;;;;;4.35;3.95;;;16.00;93.10;;;;;;6242509;23;20001;-70
2023/05/21 01:50:40;;;;;;;5.18;4.43;;;16.00;93.30;;;;;;6242227;23;20007;-70
2023/05/21 01:53:06;;;;;;;5.18;3.92;;;16.00;93.40;;;;;;6242382;23;19997;-70
2023/05/21 01:55:32;;;;;;;4.13;3.47;;;16.00;93.50;;;;;;6215314;23;20011;-70
2023/05/21 01:57:58;;;;;;;4.72;3.80;;;16.00;93.60;;;;;;6242510;23;20003;-70
2023/05/21 02:00:27;;;;;;;4.55;4.13;;;15.90;93.60;;;;;;6242264;23;20333;-70
2023/05/21 02:02:52;;;;;;;4.90;4.40;;;16.00;93.60;;;;;;6242728;23;20004;-70
2023/05/21 02:05:18;;;;;;;6.05;4.65;;;16.00;93.70;;;;;;6241544;23;20027;-70
2023/05/21 02:07:45;;;;;;;5.35;4.20;;;15.90;93.90;;;;;;6242631;23;20361;-70
2023/05/21 02:10:11;;;;;;;6.22;4.53;;;15.90;93.70;;;;;;6241924;23;20434;-70
2023/05/21 02:12:37;;;;;;;8.65;4.35;;;15.90;93.90;;;;;;6242433;23;20337;-70
2023/05/21 02:15:03;;;;;;;5.22;4.82;;;15.90;93.90;;;;;;6242742;23;20002;-69
2023/05/21 02:17:32;;;;;;;8.30;4.50;;;15.90;93.90;;;;;;6242003;23;20016;-70
2023/05/21 02:20:09;;;;;;;4.93;4.35;;;15.90;94.10;;;;;;6241855;23;20026;-70
2023/05/21 02:22:39;;;;;;;5.05;4.18;;;15.90;94.10;;;;;;6242174;23;20012;-70
2023/05/21 02:25:06;;;;;;;5.47;4.90;;;15.90;94.10;;;;;;6241879;23;20001;-70
2023/05/21 02:27:33;;;;;;;4.72;4.22;;;15.90;94.20;;;;;;6241685;23;20011;-70
2023/05/21 02:30:00;;;;;;;7.43;4.72;;;15.90;94.30;;;;;;6240781;23;20000;-70
2023/05/21 02:32:25;;;;;;;6.55;4.78;;;15.80;94.40;;;;;;6241120;23;20000;-70
2023/05/21 02:34:51;;;;;;;5.80;5.20;;;15.90;94.50;;;;;;6241522;23;20317;-70
2023/05/21 02:37:18;;;;;;;5.45;4.90;;;15.90;94.50;;;;;;6213393;23;20428;-69
2023/05/21 02:39:43;;;;;;;6.70;5.00;;;15.90;94.60;;;;;;6241733;23;20004;-71
2023/05/21 02:42:09;;;;;;;5.80;4.72;;;15.90;94.60;;;;;;6241999;23;20381;-71
2023/05/21 02:44:35;;;;;;;7.45;5.10;;;15.90;94.60;;;;;;6242100;23;20042;-70
2023/05/21 02:47:00;;;;;;;7.32;4.90;;;15.90;94.70;;;;;;6242499;23;20075;-70
2023/05/21 02:49:26;;;;;;;6.35;5.32;;;15.90;94.70;;;;;;6241390;23;20026;-70
2023/05/21 02:51:51;;;;;;;5.45;4.95;;;15.90;94.80;;;;;;6242271;23;20377;-70
2023/05/21 02:54:17;;;;;;;6.35;5.22;;;15.90;94.90;;;;;;6242101;23;19996;-71
2023/05/21 02:56:42;;;;;;;6.85;5.05;;;15.90;95.00;;;;;;6242124;23;20000;-70
2023/05/21 02:59:08;;;;;;;7.53;5.50;;;15.90;95.00;;;;;;6242316;23;20000;-70
2023/05/21 03:01:33;;;;;;;8.18;5.18;;;15.80;95.10;;;;;;6241856;23;20007;-70
2023/05/21 03:03:59;;;;;;;5.55;4.88;;;15.80;95.30;;;;;;6214895;23;20015;-70
2023/05/21 03:06:24;;;;;;;5.55;5.05;;;15.80;95.30;;;;;;6241870;23;20000;-70
2023/05/21 03:08:50;;;;;;;7.50;5.10;;;15.70;95.40;;;;;;6242145;23;20004;-70
2023/05/21 03:11:17;;;;;;;8.32;5.22;;;15.80;95.40;;;;;;6241872;23;20054;-70
2023/05/21 03:13:43;;;;;;;5.88;5.30;;;15.80;95.50;;;;;;6214948;23;20000;-70
2023/05/21 03:16:08;;;;;;;8.30;5.40;;;15.70;95.70;;;;;;6240063;23;20003;-71
2023/05/21 03:18:34;;;;;;;5.93;5.28;;;15.70;95.70;;;;;;6241205;23;20004;-70
2023/05/21 03:21:00;;;;;;;7.82;6.05;;;15.70;95.80;;;;;;6240421;23;20011;-70
2023/05/21 03:23:26;;;;;;;6.38;5.75;;;15.80;95.90;;;;;;6240680;23;20333;-70
2023/05/21 03:25:51;;;;;;;7.38;5.25;;;15.80;95.90;;;;;;6240414;23;20077;-71
2023/05/21 03:28:17;;;;;;;5.97;4.45;;;15.80;96.00;;;;;;6241362;23;20019;-70
2023/05/21 03:30:45;;;;;;;7.43;5.25;;;15.80;96.00;;;;;;6240991;23;20027;-70
2023/05/21 03:33:12;;;;;;;6.13;5.45;;;15.70;96.00;;;;;;6241552;23;20000;-71
2023/05/21 03:35:38;;;;;;;6.07;5.53;;;15.80;96.40;;;;;;6241818;23;20000;-70
2023/05/21 03:38:04;;;;;;;7.72;5.65;;;15.70;96.20;;;;;;6241775;23;20248;-70
2023/05/21 03:40:29;;;;;;;6.70;6.05;;;15.70;96.20;;;;;;6241799;23;20311;-70
2023/05/21 03:42:55;;;;;;;6.25;5.50;;;15.70;96.30;;;;;;6242008;23;20011;-70
2023/05/21 03:45:20;;;;;;;6.13;5.35;;;15.70;96.40;;;;;;6241040;23;20027;-70
2023/05/21 03:47:47;;;;;;;7.25;5.57;;;15.70;96.50;;;;;;6241830;23;19996;-70
2023/05/21 03:50:13;;;;;;;9.35;6.03;;;15.70;96.60;;;;;;6241303;23;20010;-70
2023/05/21 03:52:38;;;;;;;8.38;6.45;;;15.70;96.60;;;;;;6215038;23;20004;-70
2023/05/21 03:55:05;;;;;;;9.38;6.00;;;15.70;96.70;;;;;;6214229;23;20004;-70
2023/05/21 03:57:31;;;;;;;6.32;5.65;;;15.70;96.70;;;;;;6241673;23;20011;-70
2023/05/21 03:59:57;;;;;;;6.45;5.80;;;15.70;96.70;;;;;;6213989;23;20000;-70
2023/05/21 04:02:25;;;;;;;9.27;5.50;;;15.70;96.80;;;;;;6241340;23;20406;-70
2023/05/21 04:04:52;;;;;;;6.25;5.45;;;15.70;96.90;;;;;;6241931;23;20079;-70
2023/05/21 04:07:18;;;;;;;9.98;6.38;;;15.60;97.00;;;;;;6241268;23;20004;-70
2023/05/21 04:09:45;;;;;;;6.38;5.78;;;15.70;97.10;;;;;;6241703;23;20035;-71
2023/05/21 04:12:10;;;;;;;6.32;5.70;;;15.70;97.20;;;;;;6214728;23;20511;-70
2023/05/21 04:14:38;;;;;;;7.18;5.97;;;15.70;97.20;;;;;;6240965;23;20004;-70
2023/05/21 04:17:04;;;;;;;6.43;5.82;;;15.70;97.30;;;;;;6214602;23;20003;-70
2023/05/21 04:19:31;;;;;;;6.35;5.70;;;15.70;97.40;;;;;;6241464;23;20028;-70
2023/05/21 04:21:57;;;;;;;6.75;6.18;;;15.70;97.50;;;;;;6241341;23;20001;-70
2023/05/21 04:24:23;;;;;;;6.82;6.13;;;15.70;97.50;;;;;;6241537;23;20015;-70
2023/05/21 04:26:48;;;;;;;6.90;6.22;;;15.70;97.60;;;;;;6241154;23;20008;-71
2023/05/21 04:29:16;;;;;;;6.00;5.47;;;15.80;97.70;;;;;;6240493;23;20004;-70
2023/05/21 04:31:42;;;;;;;6.45;5.80;;;15.80;97.70;;;;;;6214886;23;20103;-70
2023/05/21 04:34:08;;;;;;;6.40;5.80;;;15.80;97.70;;;;;;6241518;23;20096;-70
2023/05/21 04:36:33;;;;;;;6.78;5.82;;;15.80;97.70;;;;;;6214116;23;20020;-71
2023/05/21 04:39:00;;;;;;;6.45;5.80;;;15.80;97.80;;;;;;6241345;23;20090;-71
2023/05/21 04:41:25;;;;;;;6.55;5.95;;;15.80;97.90;;;;;;6241266;23;20011;-71
2023/05/21 04:43:53;;;;;;;6.57;5.70;;;15.80;97.90;;;;;;6243111;23;20046;-71
2023/05/21 04:46:23;;;;;;;8.43;5.40;;;15.80;97.90;;;;;;6243234;23;20004;-71
2023/05/21 04:48:55;;;;;;;7.53;6.50;;;15.80;98.00;;;;;;6243595;23;20008;-71
2023/05/21 04:51:23;;;;;;;6.63;5.93;;;15.80;98.10;;;;;;6243202;23;20000;-71
2023/05/21 04:53:49;;;;;;;7.63;6.40;;;15.90;98.20;;;;;;6216460;23;20000;-71
2023/05/21 04:56:17;;;;;;;7.70;6.40;;;15.90;98.20;;;;;;6243023;23;20386;-71
2023/05/21 04:58:47;;;;;;;7.03;6.18;;;15.90;98.30;;;;;;6242933;23;20310;-71
2023/05/21 05:01:14;;;;;;;6.68;6.07;;;15.90;98.40;;;;;;6243074;23;20081;-71
2023/05/21 05:03:39;;;;;;;7.65;6.47;;;15.90;98.40;;;;;;6243654;23;20003;-71
2023/05/21 05:06:06;;;;;;;6.40;5.80;;;15.90;98.50;;;;;;6243381;23;20310;-71
2023/05/21 05:08:32;;;;;;;6.18;5.57;;;15.90;98.50;;;;;;6243124;23;20000;-70
2023/05/21 05:10:58;;;;;;;6.22;5.50;;;16.00;98.50;;;;;;6243686;23;20008;-71
2023/05/21 05:13:23;;;;;;;7.22;6.28;;;16.00;98.60;;;;;;6242384;23;20298;-71
2023/05/21 05:15:49;;;;;;;7.35;6.63;;;16.00;98.70;;;;;;6243445;23;20000;-71
2023/05/21 05:18:15;;;;;;;9.05;6.10;;;16.00;98.80;;;;;;6242709;23;20008;-70
2023/05/21 05:20:40;;;;;;;12.68;7.13;;;16.00;98.90;;;;;;6243101;23;20046;-70
2023/05/21 05:23:06;;;;;;;6.65;5.57;;;16.00;99.00;;;;;;6241879;23;20000;-72
2023/05/21 05:25:32;;;;;;;7.03;6.07;;;16.00;99.00;;;;;;6240402;23;20012;-70
2023/05/21 05:27:57;;;;;;;8.05;6.30;;;16.10;99.10;;;;;;6239292;23;20007;-70
2023/05/21 05:30:23;;;;;;;8.07;6.20;;;16.10;99.10;;;;;;6242351;23;20001;-70
2023/05/21 05:32:48;;;;;;;7.30;6.47;;;16.10;99.20;;;;;;6215571;23;20007;-70
2023/05/21 05:35:14;;;;;;;7.63;6.88;;;16.10;99.20;;;;;;6242895;23;20371;-70
2023/05/21 05:37:40;;;;;;;9.15;6.43;;;16.10;99.30;;;;;;6243100;23;19992;-70
2023/05/21 05:40:06;;;;;;;7.10;6.35;;;16.10;99.30;;;;;;6216182;23;20015;-70
2023/05/21 05:42:32;;;;;;;7.10;6.40;;;16.20;99.40;;;;;;6242537;23;20005;-70
2023/05/21 05:44:57;;;;;;;9.63;6.68;;;16.20;99.40;;;;;;6243175;23;20007;-70
2023/05/21 05:47:23;;;;;;;7.65;6.95;;;16.10;99.40;;;;;;6242943;23;19996;-71
2023/05/21 05:49:49;;;;;;;7.28;6.57;;;16.20;99.50;;;;;;6243212;23;20007;-71
2023/05/21 05:52:14;;;;;;;8.50;7.60;;;16.10;99.50;;;;;;6242625;23;20023;-71
2023/05/21 05:54:40;;;;;;;8.52;7.57;;;16.20;99.70;;;;;;6242648;23;20299;-71
2023/05/21 05:57:06;;;;;;;8.27;6.15;;;16.20;99.70;;;;;;6242340;23;20046;-71
2023/05/21 05:59:32;;;;;;;7.60;6.90;;;16.10;99.70;;;;;;6214225;23;20012;-71
2023/05/21 06:01:59;;;;;;;12.80;7.55;;;16.20;99.80;;;;;;6241741;23;20083;-71
2023/05/21 06:04:24;;;;;;;8.25;7.38;;;16.20;99.70;;;;;;6241772;23;20467;-71
2023/05/21 06:06:51;;;;;;;6.88;6.18;;;16.20;99.80;;;;;;6243052;23;20031;-71
2023/05/21 06:09:16;;;;;;;8.35;7.53;;;16.20;99.90;;;;;;6241662;23;20033;-71
2023/05/21 06:11:42;;;;;;;7.50;6.80;;;16.30;99.90;;;;;;6242197;23;20338;-71
2023/05/21 06:14:07;;;;;;;8.02;7.22;;;16.20;99.90;;;;;;6215721;23;20019;-71
2023/05/21 06:16:33;;;;;;;7.15;6.47;;;16.30;99.90;;;;;;6242590;23;20010;-71
2023/05/21 06:18:59;;;;;;;9.25;6.88;;;16.30;99.90;;;;;;6242450;23;20000;-71
2023/05/21 06:21:24;;;;;;;7.20;6.47;;;16.40;99.90;;;;;;6242561;23;20008;-72
2023/05/21 06:23:50;;;;;;;8.18;7.25;;;16.50;99.90;;;;;;6242557;23;20087;-71
2023/05/21 06:26:17;;;;;;;8.32;7.28;;;16.50;99.90;;;;;;6241773;23;20020;-71
2023/05/21 06:28:43;;;;;;;9.93;7.57;;;16.60;99.90;;;;;;6242651;23;20008;-71
2023/05/21 06:31:10;;;;;;;7.78;7.00;;;16.60;99.80;;;;;;6242466;23;20079;-71
2023/05/21 06:33:36;;;;;;;8.80;7.45;;;16.70;99.70;;;;;;6242753;23;20023;-72
2023/05/21 06:36:01;;;;;;;8.63;7.72;;;16.80;99.70;;;;;;6242534;23;20003;-71
2023/05/21 06:38:27;;;;;;;7.07;6.30;;;16.90;99.60;;;;;;6215392;23;20083;-71
2023/05/21 06:40:52;;;;;;;7.53;6.82;;;16.90;99.50;;;;;;6242264;23;20481;-71
2023/05/21 06:43:18;;;;;;;9.05;7.30;;;17.00;99.40;;;;;;6241994;23;20035;-72
2023/05/21 06:45:43;;;;;;;9.32;7.43;;;17.00;99.40;;;;;;6242318;23;20042;-71
2023/05/21 06:48:11;;;;;;;8.30;7.20;;;17.10;99.40;;;;;;6242415;23;20007;-71
2023/05/21 06:50:36;;;;;;;8.32;7.40;;;17.20;99.30;;;;;;6242493;23;20007;-72
2023/05/21 06:53:02;;;;;;;8.55;7.68;;;17.30;99.10;;;;;;6242527;23;20028;-72
2023/05/21 06:55:28;;;;;;;8.50;6.55;;;17.40;99.00;;;;;;6241646;23;20414;-71
2023/05/21 06:57:55;;;;;;;9.93;7.20;;;17.50;98.90;;;;;;6242637;23;20030;-71
2023/05/21 07:00:20;;;;;;;7.45;6.80;;;17.70;98.70;;;;;;6242097;23;20158;-71
2023/05/21 07:02:46;;;;;;;6.63;6.00;;;17.80;98.50;;;;;;6242401;23;20584;-71
2023/05/21 07:05:11;;;;;;;7.90;7.10;;;17.90;98.30;;;;;;6241387;23;19996;-72
2023/05/21 07:07:37;;;;;;;7.97;7.18;;;18.00;98.10;;;;;;6215519;23;20026;-71
2023/05/21 07:10:03;;;;;;;6.93;6.22;;;18.10;98.00;;;;;;6214627;23;20008;-71
2023/05/21 07:12:28;;;;;;;7.93;6.93;;;18.20;97.70;;;;;;6241740;23;19996;-71
2023/05/21 07:14:54;;;;;;;7.95;7.20;;;18.30;97.50;;;;;;6242110;23;20007;-71
2023/05/21 07:17:19;;;;;;;8.32;7.38;;;18.40;97.10;;;;;;6241838;23;19996;-72
2023/05/21 07:19:45;;;;;;;10.95;8.18;;;18.50;97.20;;;;;;6215269;23;20000;-72
2023/05/21 07:22:11;;;;;;;7.90;7.18;;;18.50;97.00;;;;;;6241981;23;20079;-71
2023/05/21 07:24:37;;;;;;;8.43;7.30;;;18.50;96.70;;;;;;6241477;23;20004;-78
2023/05/21 07:27:03;;;;;;;8.70;6.90;;;18.60;96.70;;;;;;6215147;23;20062;-78
2023/05/21 07:29:28;;;;;;;9.73;7.70;;;18.60;96.60;;;;;;6241615;23;20055;-78
2023/05/21 07:31:54;;;;;;;8.48;7.68;;;18.60;96.60;;;;;;6214841;23;20050;-78
2023/05/21 07:34:19;;;;;;;8.15;7.35;;;18.60;96.50;;;;;;6214713;23;20004;-78
2023/05/21 07:36:45;;;;;;;13.52;6.40;;;18.70;96.50;;;;;;6241930;23;20027;-78
2023/05/21 07:39:10;;;;;;;7.22;6.63;;;18.70;96.40;;;;;;6214281;23;20283;-79
2023/05/21 07:41:36;;;;;;;9.35;7.10;;;18.80;96.20;;;;;;6242127;23;20011;-79
2023/05/21 07:44:01;;;;;;;10.30;7.70;;;18.80;96.20;;;;;;6241897;23;20015;-78
2023/05/21 07:46:27;;;;;;;9.10;8.30;;;18.90;96.20;;;;;;6214695;23;20011;-78
2023/05/21 07:48:53;;;;;;;9.20;7.75;;;19.00;96.20;;;;;;6241732;23;20007;-78
2023/05/21 07:51:18;;;;;;;8.07;6.70;;;19.10;96.00;;;;;;6241535;23;20057;-79
2023/05/21 07:53:44;;;;;;;7.13;6.43;;;19.20;95.80;;;;;;6214327;23;20124;-79
2023/05/21 07:56:09;;;;;;;10.85;7.53;;;19.20;95.90;;;;;;6241898;23;20000;-79
2023/05/21 07:58:35;;;;;;;10.45;8.25;;;19.40;95.80;;;;;;6214678;23;20094;-78
2023/05/21 08:01:01;;;;;;;10.05;8.45;;;19.50;95.70;;;;;;6214746;23;20083;-78
2023/05/21 08:03:29;;;;;;;8.55;7.70;;;19.60;95.40;;;;;;6214473;23;20004;-78
2023/05/21 08:05:55;;;;;;;7.90;7.10;;;19.70;95.20;;;;;;6241818;23;20028;-78
2023/05/21 08:08:22;;;;;;;7.38;6.75;;;19.90;95.20;;;;;;6213847;23;20150;-78
2023/05/21 08:10:47;;;;;;;8.68;6.93;;;19.90;94.70;;;;;;6242115;23;20445;-78
2023/05/21 08:13:17;;;;;;;9.23;8.27;;;20.00;94.60;;;;;;6213983;23;20016;-79
2023/05/21 08:15:43;;;;;;;10.10;8.68;;;20.10;94.80;;;;;;6214990;23;20016;-78
2023/05/21 08:18:08;;;;;;;8.50;7.63;;;20.20;94.20;;;;;;6241259;23;20444;-78
2023/05/21 08:20:34;;;;;;;7.00;6.32;;;20.20;94.30;;;;;;6241509;23;19996;-77
2023/05/21 08:23:00;;;;;;;8.25;6.93;;;20.30;94.10;;;;;;6241558;23;20003;-77
2023/05/21 08:25:26;;;;;;;11.20;8.32;;;20.40;93.80;;;;;;6241381;23;20460;-77
2023/05/21 08:27:52;;;;;;;8.40;6.70;;;20.40;93.50;;;;;;6214507;23;20000;-77
2023/05/21 08:30:17;;;;;;;7.88;7.07;;;20.40;93.50;;;;;;6214139;23;20008;-77
2023/05/21 08:32:43;;;;;;;12.35;7.97;;;20.40;93.50;;;;;;6241537;23;20043;-77
2023/05/21 08:35:09;;;;;;;10.65;8.85;;;20.50;93.30;;;;;;6240991;23;20453;-77
2023/05/21 08:37:34;;;;;;;9.32;8.27;;;20.50;93.10;;;;;;6214517;23;20004;-77
2023/05/21 08:40:00;;;;;;;8.32;7.55;;;20.60;93.10;;;;;;6214682;23;20326;-79
2023/05/21 08:42:38;;;;;;;9.40;8.43;;;20.70;93.30;;;;;;6214457;23;20000;-78
2023/05/21 08:45:07;;;;;;;11.70;7.70;;;20.80;92.90;;;;;;6241108;23;20000;-78
2023/05/21 08:47:35;;;;;;;10.40;8.68;;;21.00;92.80;;;;;;6213216;23;20062;-78
2023/05/21 08:50:03;;;;;;;12.55;8.80;;;21.00;92.60;;;;;;6240830;23;20011;-77
2023/05/21 08:52:30;;;;;;;10.48;9.30;;;21.00;92.40;;;;;;6241223;23;20004;-77
2023/05/21 08:54:57;;;;;;;11.00;9.20;;;21.10;92.40;;;;;;6214435;23;20001;-77
2023/05/21 08:57:25;;;;;;;9.25;8.05;;;21.00;92.10;;;;;;6241159;23;20001;-77
2023/05/21 08:59:51;;;;;;;8.63;7.82;;;21.10;92.10;;;;;;6214401;23;20367;-76
2023/05/21 09:02:18;;;;;;;9.20;8.30;;;21.20;92.10;;;;;;6214120;23;20110;-77
2023/05/21 09:04:48;;;;;;;9.82;8.80;;;21.20;92.20;;;;;;6240690;23;20012;-77
2023/05/21 09:07:14;;;;;;;8.80;7.25;;;21.30;92.00;;;;;;6241030;23;20449;-78
2023/05/21 09:09:56;;;;;;;9.57;8.55;;;21.30;91.80;;;;;;6241299;23;20557;-74
2023/05/21 09:12:22;;;;;;;10.68;8.90;;;21.30;91.80;;;;;;6214156;23;20004;-76
2023/05/21 09:14:48;;;;;;;8.80;7.90;;;21.30;91.80;;;;;;6214375;23;20004;-77
2023/05/21 09:17:14;;;;;;;8.75;7.95;;;21.40;91.80;;;;;;6214214;23;20103;-76
2023/05/21 09:20:22;;;;;;;11.48;8.68;;;21.50;91.60;;;;;;6240730;23;20004;-77
2023/05/21 09:22:49;;;;;;;8.13;7.32;;;21.60;91.30;;;;;;6241436;23;20003;-77
2023/05/21 09:25:16;;;;;;;10.38;9.27;;;21.70;91.40;;;;;;6214025;23;20434;-78
2023/05/21 09:27:43;;;;;;;10.20;9.18;;;21.70;91.00;;;;;;6241296;23;20004;-77
2023/05/21 09:30:13;;;;;;;10.90;8.85;;;21.70;90.80;;;;;;6242661;23;20334;-76
2023/05/21 09:32:39;;;;;;;11.07;9.77;;;21.80;90.70;;;;;;6242991;23;20371;-77
2023/05/21 09:35:10;;;;;;;10.35;9.10;;;21.80;90.60;;;;;;6215671;23;20008;-77
2023/05/21 09:37:43;;;;;;;11.18;10.07;;;21.90;90.50;;;;;;6215734;23;20010;-77
2023/05/21 09:40:11;;;;;;;12.88;9.32;;;21.90;90.50;;;;;;6215921;23;20004;-76
2023/05/21 09:42:42;;;;;;;10.90;9.80;;;22.00;90.70;;;;;;6243087;23;20004;-76
2023/05/21 09:45:11;;;;;;;10.48;8.98;;;22.20;90.40;;;;;;6215676;23;20429;-76
2023/05/21 09:47:43;;;;;;;12.38;10.13;;;22.30;90.40;;;;;;6242364;23;20004;-76
2023/05/21 09:50:16;;;;;;;11.43;9.35;;;22.40;90.20;;;;;;6215603;23;20000;-77
2023/05/21 09:52:42;;;;;;;11.75;10.48;;;22.50;90.20;;;;;;6216973;23;20072;-77
2023/05/21 09:55:13;;;;;;;14.13;11.18;;;22.50;90.00;;;;;;6242905;23;20028;-77
2023/05/21 09:57:43;;;;;;;10.98;9.80;;;22.60;89.50;;;;;;6216450;23;20035;-76
2023/05/21 10:00:16;;;;;;;11.95;10.65;;;22.70;89.30;;;;;;6242680;23;20000;-77
2023/05/21 10:02:44;;;;;;;13.52;12.27;;;22.70;89.20;;;;;;6242430;23;20007;-76
2023/05/21 10:05:12;;;;;;;13.52;12.23;;;22.60;89.00;;;;;;6242734;23;20027;-76
2023/05/21 10:07:40;;;;;;;13.43;11.98;;;22.60;89.10;;;;;;6243132;23;20008;-77
2023/05/21 10:10:12;;;;;;;12.57;11.38;;;22.60;89.40;;;;;;6243467;23;20064;-77
2023/05/21 10:12:43;;;;;;;15.20;13.00;;;22.70;88.90;;;;;;6216479;23;20087;-77
2023/05/21 10:15:15;;;;;;;12.27;11.18;;;22.60;88.60;;;;;;6242729;23;19996;-77
2023/05/21 10:17:41;;;;;;;11.50;10.38;;;22.70;88.90;;;;;;6215070;23;20008;-78
2023/05/21 10:20:09;;;;;;;12.13;11.02;;;22.70;89.50;;;;;;6215635;23;20063;-76
2023/05/21 10:22:36;;;;;;;14.70;13.30;;;22.70;89.40;;;;;;6215100;23;20291;-77
2023/05/21 10:25:02;;;;;;;13.10;12.00;;;22.70;89.00;;;;;;6215080;23;20323;-77
2023/05/21 10:27:29;;;;;;;14.40;12.23;;;22.70;88.90;;;;;;6215440;23;20326;-76
2023/05/21 10:29:57;;;;;;;13.07;11.70;;;22.70;88.40;;;;;;6215662;23;20030;-77
2023/05/21 10:32:26;;;;;;;16.27;13.25;;;22.70;88.60;;;;;;6241677;23;20016;-77
2023/05/21 10:34:53;;;;;;;16.70;15.00;;;22.70;88.70;;;;;;6242598;23;20004;-77
2023/05/21 10:37:22;;;;;;;16.88;13.95;;;22.70;88.70;;;;;;6217267;23;20481;-80
2023/05/21 10:39:49;;;;;;;14.60;13.25;;;22.70;88.70;;;;;;6242637;23;20008;-76
2023/05/21 10:42:30;;;;;;;16.92;15.23;;;22.70;88.70;;;;;;6242338;23;20065;-77
2023/05/21 10:45:01;;;;;;;14.55;13.23;;;22.70;88.80;;;;;;6215715;23;20015;-77
2023/05/21 10:48:00;;;;;;;13.48;12.25;;;22.80;88.70;;;;;;6214720;23;20005;-78
2023/05/21 10:51:01;;;;;;;13.77;12.30;;;22.90;88.50;;;;;;6241854;23;20035;-77
2023/05/21 10:53:35;;;;;;;12.88;11.73;;;22.90;89.30;;;;;;6241905;23;20283;-78
2023/05/21 10:56:17;;;;;;;13.20;11.85;;;22.90;88.80;;;;;;6215500;23;20007;-77
2023/05/21 10:58:46;;;;;;;15.57;13.48;;;23.00;88.30;;;;;;6242136;23;20000;-78
2023/05/21 11:01:14;;;;;;;13.32;12.05;;;22.90;88.40;;;;;;6240943;23;20398;-77
2023/05/21 11:03:39;;;;;;;16.15;14.68;;;23.00;88.80;;;;;;6242595;23;20000;-78
2023/05/21 11:06:05;;;;;;;14.20;12.75;;;23.00;88.40;;;;;;6214898;23;20444;-75
2023/05/21 11:08:34;;;;;;;15.55;14.10;;;23.10;88.40;;;;;;6242007;23;20012;-77
2023/05/21 11:11:01;;;;;;;14.75;13.35;;;23.20;87.90;;;;;;6215429;23;20058;-77
2023/05/21 11:13:30;;;;;;;14.50;13.18;;;23.20;87.30;;;;;;6214883;23;20032;-77
2023/05/21 11:15:58;;;;;;;14.77;13.38;;;23.10;87.50;;;;;;6214174;23;20001;-76
2023/05/21 11:18:37;;;;;;;15.05;13.50;;;23.10;87.50;;;;;;6214776;23;20079;-76
2023/05/21 11:21:09;;;;;;;14.90;13.40;;;23.10;87.40;;;;;;6215093;23;20007;-77
2023/05/21 11:23:49;;;;;;;16.40;13.65;;;23.00;87.90;;;;;;6241919;23;20004;-77
2023/05/21 11:26:53;;;;;;;14.32;12.90;;;23.00;88.10;;;;;;6241641;23;20008;-77
2023/05/21 11:29:19;;;;;;;13.35;12.00;;;23.00;88.50;;;;;;6214074;23;20020;-77
2023/05/21 11:32:01;;;;;;;14.18;12.70;;;23.10;88.10;;;;;;6215225;23;20090;-77
2023/05/21 11:34:39;;;;;;;13.20;12.00;;;23.10;88.10;;;;;;6214802;23;20012;-78
2023/05/21 11:37:17;;;;;;;17.52;13.65;;;23.20;87.60;;;;;;6214756;23;20018;-76
2023/05/21 11:39:46;;;;;;;15.05;12.95;;;23.20;87.10;;;;;;6215099;23;20004;-77
2023/05/21 11:42:26;;;;;;;15.07;13.23;;;23.20;87.10;;;;;;6241561;23;20252;-77
2023/05/21 11:44:51;;;;;;;12.70;11.43;;;23.20;87.80;;;;;;6241384;23;20075;-77
2023/05/21 11:47:18;;;;;;;14.93;13.32;;;23.30;87.90;;;;;;6214518;23;20078;-76
2023/05/21 11:49:44;;;;;;;13.38;12.02;;;23.30;87.20;;;;;;6242710;23;20004;-76
2023/05/21 11:52:11;;;;;;;14.85;13.43;;;23.30;87.00;;;;;;6241609;23;20326;-76
2023/05/21 11:54:41;;;;;;;15.57;12.77;;;23.30;87.20;;;;;;6243439;23;20000;-76
2023/05/21 11:57:08;;;;;;;13.90;12.50;;;23.40;87.50;;;;;;6214747;23;20093;-77
2023/05/21 11:59:35;;;;;;;11.95;10.13;;;23.40;87.60;;;;;;6240937;23;20130;-76
2023/05/21 12:02:01;;;;;;;11.98;10.50;;;23.40;87.40;;;;;;6214561;23;20082;-77
2023/05/21 12:04:31;;;;;;;14.25;12.18;;;23.40;88.10;;;;;;6214071;23;20004;-77
2023/05/21 12:06:59;;;;;;;13.73;12.27;;;23.50;87.00;;;;;;6241208;23;20059;-77
2023/05/21 12:09:25;;;;;;;14.02;12.57;;;23.40;86.70;;;;;;6240799;23;20054;-77
2023/05/21 12:11:50;;;;;;;15.25;12.98;;;23.40;86.50;;;;;;6241550;23;20012;-77
2023/05/21 12:14:16;;;;;;;12.38;11.25;;;23.50;86.40;;;;;;6213598;23;20000;-76
2023/05/21 12:16:42;;;;;;;13.45;12.20;;;23.60;86.50;;;;;;6241270;23;20008;-77
2023/05/21 12:19:08;;;;;;;12.95;11.57;;;23.60;86.60;;;;;;6241405;23;20000;-77
2023/05/21 12:21:34;;;;;;;14.00;11.93;;;23.70;86.80;;;;;;6214375;23;20004;-75
2023/05/21 12:24:00;;;;;;;13.55;12.10;;;23.80;86.60;;;;;;6241782;23;20001;-76
2023/05/21 12:26:27;;;;;;;13.63;12.18;;;23.90;86.60;;;;;;6214277;23;20046;-77
2023/05/21 12:28:53;;;;;;;14.02;12.57;;;24.00;86.00;;;;;;6214089;23;20439;-76
2023/05/21 12:31:23;;;;;;;12.57;11.23;;;24.00;85.90;;;;;;6240888;23;19996;-76
2023/05/21 12:33:52;;;;;;;13.52;12.13;;;24.00;85.60;;;;;;6215130;23;20000;-76
2023/05/21 12:36:36;;;;;;;12.18;10.93;;;24.00;85.10;;;;;;6241613;23;20447;-76
2023/05/21 12:39:03;;;;;;;13.40;12.07;;;24.00;85.10;;;;;;6214637;23;20016;-76
2023/05/21 12:41:28;;;;;;;13.73;12.25;;;24.00;85.50;;;;;;6214811;23;20004;-75
2023/05/21 12:43:54;;;;;;;14.13;11.52;;;24.10;85.10;;;;;;6241250;23;20012;-76